This is the latest recevied weather packets stored in our database for station/object AA0RD-13. If no packets are shown the sender has not sent any weather packets the latest 10 day(s).
| Time | Temp. | Humidity | Pressure | Rain* | Wind** | Luminosity | Snow |
|---|---|---|---|---|---|---|---|
| 1777854508 | 18.33° C | 59% | 1010.9 hPa | 0 mm | - | - | - |
| 1777854203 | 18.33° C | 60% | 1010.9 hPa | 0 mm | - | - | - |
| 1777853607 | 17.78° C | 64% | 1010.9 hPa | 0 mm | - | - | - |
| 1777853030 | 18.33° C | 61% | 1011 hPa | 0 mm | - | - | - |
| 1777851506 | 19.44° C | 59% | 1011.2 hPa | 0 mm | - | - | - |
| 1777850911 | 18.89° C | 61% | 1011.3 hPa | 0 mm | - | - | - |
| 1777848198 | 20° C | 59% | 1012 hPa | 0 mm | - | - | - |
| 1777846427 | 18.33° C | 65% | 1012.4 hPa | 0 mm | - | - | - |
| 1777845503 | 18.33° C | 65% | 1012.5 hPa | 0 mm | - | - | - |
| 1777844905 | 18.33° C | 64% | 1012.6 hPa | 0 mm | - | - | - |
| 1777842232 | 18.33° C | 62% | 1012.9 hPa | 0 mm | - | - | - |
| 1777841902 | 18.33° C | 63% | 1013 hPa | 0 mm | - | - | - |
| 1777841595 | 18.33° C | 62% | 1013.1 hPa | 0 mm | - | - | - |
| 1777839498 | 16.67° C | 76% | 1013.3 hPa | 0 mm | - | - | - |
| 1777839210 | 16.67° C | 76% | 1013.3 hPa | 0 mm | - | - | - |
| 1777838901 | 16.67° C | 75% | 1013.3 hPa | 0 mm | - | - | - |
| 1777837705 | 17.22° C | 70% | 1013.6 hPa | 0 mm | - | - | - |
| 1777837129 | 17.22° C | 71% | 1013.6 hPa | 0 mm | - | - | - |
| 1777836496 | 17.22° C | 72% | 1013.8 hPa | 0 mm | - | - | - |
| 1777835898 | 17.22° C | 70% | 1013.9 hPa | 0 mm | - | - | - |
| 1777834994 | 16.11° C | 72% | 1014 hPa | 0 mm | - | - | - |
| 1777830494 | 17.22° C | 71% | 1014.8 hPa | 0 mm | - | - | - |
| 1777829896 | 16.67° C | 71% | 1014.9 hPa | 0 mm | - | - | - |
| 1777827217 | 13.89° C | 80% | 1015 hPa | 0 mm | - | - | - |
| 1777825999 | 13.89° C | 79% | 1015.4 hPa | 0 mm | - | - | - |
* Rain latest hour (hover to see other rain measurements)
** Current wind speed in m/s (hover to see current wind gust speed)